Time;durP1;ratioP1;P1;durP2;ratioP2;P2;SDS_P1;SDS_P2;PMS_P1;PMS_P2;Temp;Humidity;BMP_temperature;BMP_pressure;BME280_temperature;BME280_humidity;BME280_pressure;Samples;Min_cycle;Max_cycle;Signal;HPM_P1;HPM_P2
2020/12/12 12:48:39;;;;;;;17.85;9.18;;;;;;;9.27;71.99;98026.63;4996074;28;20448;-88
2020/12/12 12:51:08;;;;;;;17.50;9.27;;;;;;;9.24;71.75;98036.41;5000399;28;20053;-86
2020/12/12 12:53:35;;;;;;;14.90;9.35;;;;;;;9.24;71.66;98027.72;5001023;28;20053;-87
2020/12/12 12:56:02;;;;;;;14.35;8.75;;;;;;;9.23;71.81;98037.38;5002703;28;20050;-87
2020/12/12 12:58:28;;;;;;;17.38;9.95;;;;;;;9.23;71.97;98031.28;5000262;28;20053;-88
2020/12/12 13:00:55;;;;;;;16.40;9.40;;;;;;;9.22;71.70;98034.88;5000322;28;20060;-86
2020/12/12 13:03:26;;;;;;;18.33;10.38;;;;;;;9.20;71.78;98042.84;5001066;28;20113;-86
2020/12/12 13:05:52;;;;;;;14.80;8.75;;;;;;;9.19;72.09;98035.94;5000909;28;20054;-86
2020/12/12 13:08:18;;;;;;;15.38;9.55;;;;;;;9.18;72.18;98039.53;5000684;28;20054;-87
2020/12/12 13:10:45;;;;;;;15.80;9.55;;;;;;;9.18;71.98;98033.44;4999390;28;20054;-86
2020/12/12 13:13:14;;;;;;;16.33;9.57;;;;;;;9.17;71.98;98047.53;5002384;28;20064;-87
2020/12/12 13:15:56;;;;;;;16.17;9.52;;;;;;;9.19;72.14;98040.38;4999809;28;20133;-87
2020/12/12 13:18:33;;;;;;;21.13;10.15;;;;;;;9.19;72.23;98035.94;4999704;28;20481;-86
2020/12/12 13:23:45;;;;;;;17.45;9.98;;;;;;;9.22;72.33;98048.84;4960782;28;20051;-86
2020/12/12 13:26:11;;;;;;;25.75;11.30;;;;;;;9.22;72.62;98046.22;4998439;28;20054;-87
2020/12/12 13:31:29;;;;;;;20.70;11.43;;;;;;;9.23;71.98;98061.00;5001730;28;20065;-87
2020/12/12 13:34:04;;;;;;;21.95;10.82;;;;;;;9.22;71.81;98059.34;4998194;28;20066;-87
2020/12/12 13:36:33;;;;;;;19.88;11.45;;;;;;;9.22;71.79;98061.97;4999083;28;20054;-87
2020/12/12 13:38:59;;;;;;;19.83;10.77;;;;;;;9.22;72.01;98069.84;5002549;28;20050;-86
2020/12/12 13:41:27;;;;;;;18.00;10.20;;;;;;;9.20;72.22;98074.34;4999169;28;20046;-86
2020/12/12 13:43:53;;;;;;;17.63;10.35;;;;;;;9.20;72.56;98070.91;4998932;28;20050;-87
2020/12/12 13:46:22;;;;;;;21.88;12.15;;;;;;;9.18;72.20;98076.28;4999180;28;20050;-87
2020/12/12 13:48:49;;;;;;;25.13;11.73;;;;;;;9.17;71.84;98086.91;4999974;28;20049;-86
2020/12/12 13:51:15;;;;;;;16.38;11.05;;;;;;;9.13;72.00;98074.00;4998674;28;20066;-87
2020/12/12 13:53:42;;;;;;;26.13;12.18;;;;;;;9.13;72.23;98081.06;5000146;28;20050;-87
2020/12/12 13:56:10;;;;;;;23.10;12.15;;;;;;;9.11;72.44;98086.44;5000957;28;20049;-87
2020/12/12 13:58:37;;;;;;;24.02;12.45;;;;;;;9.10;72.39;98089.16;5000618;28;20049;-87
2020/12/12 14:01:04;;;;;;;24.25;12.02;;;;;;;9.09;72.39;98092.75;5001457;28;20109;-87
2020/12/12 14:03:30;;;;;;;26.95;11.70;;;;;;;9.07;72.28;98092.03;4998669;28;20125;-85
2020/12/12 14:06:02;;;;;;;28.00;12.95;;;;;;;9.06;72.40;98100.88;4999431;28;20081;-86
2020/12/12 14:22:01;;;;;;;24.25;11.57;;;;;;;9.05;72.51;98122.81;4998343;28;20050;-86
2020/12/12 14:24:27;;;;;;;24.35;11.65;;;;;;;9.06;72.43;98129.72;5000085;28;20054;-86
2020/12/12 14:29:43;;;;;;;20.98;11.23;;;;;;;9.04;72.13;98131.66;4999120;28;20042;-86
2020/12/12 14:32:11;;;;;;;20.90;10.88;;;;;;;9.02;72.51;98130.91;4998628;28;20053;-86
2020/12/12 14:34:42;;;;;;;24.60;10.48;;;;;;;8.99;72.50;98135.47;5000088;28;20050;-86
2020/12/12 14:37:08;;;;;;;24.92;10.90;;;;;;;9.03;72.52;98140.47;4997645;28;20066;-85
2020/12/12 14:39:34;;;;;;;23.98;11.50;;;;;;;9.03;72.61;98137.84;4998027;28;20042;-85
2020/12/12 14:42:00;;;;;;;22.33;11.23;;;;;;;9.03;72.68;98140.47;4997008;28;20046;-86
2020/12/12 14:44:27;;;;;;;23.27;11.05;;;;;;;9.03;72.49;98148.34;4999490;28;20061;-86
2020/12/12 14:46:59;;;;;;;27.10;11.70;;;;;;;9.01;72.53;98151.06;4994798;28;20057;-86
2020/12/12 14:49:27;;;;;;;22.60;11.33;;;;;;;9.03;72.45;98145.72;4996813;28;20097;-85
2020/12/12 14:51:54;;;;;;;18.20;10.30;;;;;;;9.03;72.59;98153.59;4997191;28;20081;-86
2020/12/12 14:54:22;;;;;;;19.40;10.00;;;;;;;9.01;72.58;98166.81;4998401;28;20046;-86
2020/12/12 14:56:48;;;;;;;17.73;10.32;;;;;;;9.02;72.64;98163.25;4996373;28;20064;-86
2020/12/12 14:59:14;;;;;;;24.88;11.60;;;;;;;9.01;72.74;98163.38;4997292;28;20046;-85
2020/12/12 15:01:40;;;;;;;21.48;10.63;;;;;;;9.02;72.87;98170.28;4996246;28;20050;-86
2020/12/12 15:04:06;;;;;;;24.25;11.63;;;;;;;9.02;72.64;98167.66;4995885;28;20509;-87
2020/12/12 15:06:33;;;;;;;21.02;11.73;;;;;;;9.01;72.64;98166.00;4999600;28;20050;-86
2020/12/12 15:09:00;;;;;;;16.48;9.48;;;;;;;9.00;72.59;98167.78;4996760;28;20062;-86
2020/12/12 15:11:28;;;;;;;22.08;11.57;;;;;;;9.01;72.70;98174.69;4995781;28;20062;-85
2020/12/12 15:13:57;;;;;;;22.27;11.48;;;;;;;8.99;72.82;98182.72;4996818;28;20050;-86
2020/12/12 15:16:23;;;;;;;21.42;10.30;;;;;;;9.01;72.89;98184.38;4994972;28;20061;-86
2020/12/12 15:18:49;;;;;;;25.23;12.00;;;;;;;9.01;72.90;98181.75;5000286;28;20444;-86
2020/12/12 15:21:16;;;;;;;22.25;11.43;;;;;;;9.02;72.84;98186.03;4997487;28;20052;-85
2020/12/12 15:23:42;;;;;;;29.08;12.27;;;;;;;9.01;72.56;98189.63;4994205;28;20512;-86
2020/12/12 15:26:09;;;;;;;28.33;13.00;;;;;;;9.01;72.59;98197.50;4998392;28;20054;-86
2020/12/12 15:28:36;;;;;;;23.60;12.65;;;;;;;8.98;72.79;98199.38;4996220;28;20511;-89
2020/12/12 15:31:05;;;;;;;29.58;13.20;;;;;;;8.98;72.67;98201.19;4995755;28;20568;-86
2020/12/12 15:33:41;;;;;;;28.55;12.55;;;;;;;8.96;72.67;98213.56;4997956;28;20054;-87
2020/12/12 15:36:09;;;;;;;25.67;11.73;;;;;;;8.93;73.00;98219.91;4996316;28;20046;-87
2020/12/12 15:38:37;;;;;;;29.02;13.43;;;;;;;8.92;73.10;98210.34;4999195;28;20046;-86
2020/12/12 15:41:04;;;;;;;29.75;13.50;;;;;;;8.92;73.16;98218.22;4996610;28;20112;-87
2020/12/12 15:43:31;;;;;;;26.70;12.23;;;;;;;8.91;73.28;98228.84;4997065;28;20057;-88
2020/12/12 15:45:57;;;;;;;28.23;13.57;;;;;;;8.90;73.11;98220.13;4997535;28;20512;-87
2020/12/12 15:48:25;;;;;;;25.92;13.65;;;;;;;8.90;73.08;98227.16;4997481;28;20053;-87
2020/12/12 15:50:53;;;;;;;26.33;12.27;;;;;;;8.88;73.29;98227.28;4997795;28;20081;-87
2020/12/12 15:53:20;;;;;;;26.75;12.45;;;;;;;8.90;73.12;98233.22;4996280;28;20054;-86
2020/12/12 15:55:48;;;;;;;26.90;12.63;;;;;;;8.90;73.24;98232.41;4997067;28;20105;-87
2020/12/12 15:58:15;;;;;;;21.23;11.90;;;;;;;8.91;73.40;98240.19;4999012;28;20053;-87
2020/12/12 16:00:41;;;;;;;23.05;11.68;;;;;;;8.92;73.50;98239.22;4996410;28;20046;-86
2020/12/12 16:03:07;;;;;;;23.52;12.38;;;;;;;8.93;73.50;98242.69;4996188;28;20057;-86
2020/12/12 16:05:34;;;;;;;25.48;13.23;;;;;;;8.96;73.59;98251.16;4996582;28;20057;-87
2020/12/12 16:08:03;;;;;;;22.08;12.55;;;;;;;8.96;73.46;98245.91;4996473;28;20496;-87
2020/12/12 16:10:32;;;;;;;21.88;11.90;;;;;;;8.99;73.32;98250.94;4995721;28;20050;-86
2020/12/12 16:13:02;;;;;;;24.95;12.50;;;;;;;9.02;73.26;98259.53;4994256;28;20090;-87
2020/12/12 16:15:29;;;;;;;22.52;11.38;;;;;;;9.03;73.24;98261.19;4995969;28;20065;-87
2020/12/12 16:18:02;;;;;;;19.27;10.63;;;;;;;9.03;73.37;98261.19;4995681;28;20405;-86
2020/12/12 16:20:32;;;;;;;24.23;12.00;;;;;;;9.06;73.45;98260.97;4995085;28;20058;-87
2020/12/12 16:23:00;;;;;;;23.83;12.05;;;;;;;9.07;73.59;98265.25;5000243;28;20054;-88
2020/12/12 16:25:26;;;;;;;24.35;11.77;;;;;;;9.09;73.62;98268.63;4998297;28;20054;-87
2020/12/12 16:27:54;;;;;;;24.55;12.20;;;;;;;9.10;73.37;98271.13;5000765;28;20112;-87
2020/12/12 16:30:25;;;;;;;23.27;12.88;;;;;;;9.10;73.60;98267.66;4999013;28;20058;-87
2020/12/12 16:32:55;;;;;;;23.25;13.07;;;;;;;9.10;73.55;98272.91;5000056;28;20050;-88
2020/12/12 16:35:22;;;;;;;40.10;13.88;;;;;;;9.10;73.25;98273.75;4998291;28;20054;-86
2020/12/12 16:37:52;;;;;;;49.70;15.45;;;;;;;9.07;72.91;98279.22;5002398;28;20523;-87
2020/12/12 16:40:19;;;;;;;33.40;15.10;;;;;;;9.06;73.33;98281.97;5000064;28;20054;-87
2020/12/12 16:42:50;;;;;;;29.70;13.75;;;;;;;9.03;73.23;98287.44;4999937;28;20050;-87
2020/12/12 16:45:16;;;;;;;29.40;14.60;;;;;;;8.99;73.32;98282.44;4997626;28;20497;-87
2020/12/12 16:47:42;;;;;;;33.50;15.80;;;;;;;8.97;73.32;98286.94;4998490;28;20056;-87
2020/12/12 16:50:11;;;;;;;34.03;15.35;;;;;;;8.94;73.60;98279.28;4999329;28;20073;-86
2020/12/12 16:52:42;;;;;;;31.23;15.73;;;;;;;8.92;73.99;98289.09;4997657;28;20061;-87
2020/12/12 16:55:16;;;;;;;32.90;15.55;;;;;;;8.91;73.96;98292.66;4997987;28;20054;-87
2020/12/12 16:57:44;;;;;;;35.20;14.23;;;;;;;8.92;74.01;98291.72;4998512;28;20055;-87
2020/12/12 17:00:13;;;;;;;37.00;14.27;;;;;;;8.91;73.98;98295.28;5001496;28;20073;-87
2020/12/12 17:02:39;;;;;;;26.88;14.30;;;;;;;8.92;73.86;98304.81;4998518;28;20058;-87
2020/12/12 17:05:06;;;;;;;27.52;14.82;;;;;;;8.92;74.08;98306.59;4998679;28;20050;-88
2020/12/12 17:07:46;;;;;;;27.60;13.30;;;;;;;8.89;74.21;98307.66;4997620;28;20055;-88
2020/12/12 17:10:13;;;;;;;32.25;14.65;;;;;;;8.93;73.96;98308.31;4997648;28;20504;-88
2020/12/12 17:12:40;;;;;;;29.70;13.60;;;;;;;8.92;73.93;98310.06;4998798;28;20050;-89
2020/12/12 17:15:09;;;;;;;33.00;14.07;;;;;;;8.93;74.21;98310.94;4997554;28;20052;-87
2020/12/12 17:17:42;;;;;;;31.33;14.27;;;;;;;8.93;74.05;98311.75;4998228;28;20058;-87
2020/12/12 17:20:16;;;;;;;44.22;15.40;;;;;;;8.93;74.21;98309.13;4999313;28;20085;-86
2020/12/12 17:22:47;;;;;;;28.17;14.45;;;;;;;8.92;73.96;98315.31;4997225;28;20429;-87
2020/12/12 17:25:14;;;;;;;26.85;13.68;;;;;;;8.95;74.13;98314.25;4999548;28;20054;-86
2020/12/12 17:27:41;;;;;;;34.90;13.52;;;;;;;8.96;74.26;98315.94;4996270;28;20050;-86
2020/12/12 17:30:10;;;;;;;35.72;13.68;;;;;;;8.96;74.44;98319.41;5002273;28;20053;-86
2020/12/12 17:32:39;;;;;;;30.08;13.65;;;;;;;8.98;73.99;98319.28;4997888;28;20050;-87
2020/12/12 17:35:07;;;;;;;31.40;14.18;;;;;;;8.99;74.42;98326.22;4998192;28;20054;-87
2020/12/12 17:37:34;;;;;;;55.97;14.55;;;;;;;9.01;74.38;98329.53;4998205;28;20054;-86
2020/12/12 17:40:02;;;;;;;36.10;14.38;;;;;;;9.03;74.49;98324.19;4998205;28;20043;-87
2020/12/12 17:42:29;;;;;;;32.85;14.40;;;;;;;9.05;74.25;98322.31;5000474;28;20077;-88
2020/12/12 17:44:55;;;;;;;29.55;13.50;;;;;;;9.06;74.32;98330.06;4998619;28;20054;-88
2020/12/12 17:47:21;;;;;;;30.83;14.40;;;;;;;9.09;74.55;98344.75;4995713;28;20050;-87
2020/12/12 17:49:51;;;;;;;29.98;14.07;;;;;;;9.11;74.44;98338.44;4998824;28;20482;-86
2020/12/12 17:52:18;;;;;;;30.20;14.57;;;;;;;9.14;74.20;98345.25;4996715;28;20409;-87
2020/12/12 17:54:47;;;;;;;34.88;14.55;;;;;;;9.15;74.14;98346.91;4997877;28;20046;-87
2020/12/12 17:57:13;;;;;;;33.58;15.32;;;;;;;9.17;74.19;98346.78;4997621;28;20050;-87
2020/12/12 17:59:40;;;;;;;43.72;16.85;;;;;;;9.17;74.18;98347.66;4996364;28;20054;-87
2020/12/12 18:02:08;;;;;;;36.80;17.05;;;;;;;9.18;74.25;98349.31;4996166;28;20054;-86
2020/12/12 18:04:35;;;;;;;56.80;16.70;;;;;;;9.20;74.31;98346.59;4996317;28;20412;-87
2020/12/12 18:07:02;;;;;;;32.15;16.00;;;;;;;9.22;74.05;98349.91;4996592;28;20053;-86
2020/12/12 18:09:28;;;;;;;30.48;16.05;;;;;;;9.22;73.85;98350.75;5000294;28;20050;-88
2020/12/12 18:11:55;;;;;;;34.17;15.90;;;;;;;9.24;74.14;98356.72;5000959;28;20467;-87
2020/12/12 18:14:22;;;;;;;30.75;14.45;;;;;;;9.24;74.17;98356.72;4995739;28;20061;-87
2020/12/12 18:16:48;;;;;;;46.42;16.95;;;;;;;9.27;74.13;98360.09;4996137;28;20062;-88
2020/12/12 18:19:14;;;;;;;35.97;17.00;;;;;;;9.28;74.38;98361.75;4997812;28;20093;-86
2020/12/12 18:21:40;;;;;;;52.42;17.13;;;;;;;9.29;74.38;98361.66;4996258;28;20577;-87
2020/12/12 18:24:07;;;;;;;35.92;16.15;;;;;;;9.30;74.30;98358.06;4995504;28;20054;-87
2020/12/12 18:26:33;;;;;;;48.63;17.85;;;;;;;9.31;74.41;98364.97;4995395;28;20057;-87
2020/12/12 18:29:01;;;;;;;43.97;17.20;;;;;;;9.32;74.26;98376.34;4998099;28;20053;-88
2020/12/12 18:31:32;;;;;;;38.65;16.80;;;;;;;9.33;74.06;98373.59;4998704;28;20060;-88
2020/12/12 18:33:58;;;;;;;36.17;16.65;;;;;;;9.34;74.27;98377.03;4995863;28;20520;-86
2020/12/12 18:36:25;;;;;;;47.33;17.10;;;;;;;9.34;74.20;98374.41;4998424;28;20058;-88
2020/12/12 18:38:53;;;;;;;41.95;16.17;;;;;;;9.34;74.11;98383.16;4997330;28;20551;-86
2020/12/12 18:41:20;;;;;;;51.88;17.75;;;;;;;9.34;74.13;98383.16;4995666;28;20055;-88
2020/12/12 18:43:47;;;;;;;62.95;18.65;;;;;;;9.33;74.19;98389.34;4978576;28;20054;-87
2020/12/12 22:27:23;;;;;;;75.05;15.82;;;;;;;9.58;74.97;98578.47;4993932;28;20046;-91
2020/12/12 22:29:50;;;;;;;175.57;20.27;;;;;;;9.58;75.13;98581.09;4994173;28;20068;-91
2020/12/12 22:32:16;;;;;;;165.85;17.58;;;;;;;9.57;75.17;98580.25;4993712;28;20065;-91
2020/12/12 22:34:45;;;;;;;94.13;15.90;;;;;;;9.56;75.18;98583.81;5023678;23;20049;-87
2020/12/12 22:37:11;;;;;;;98.80;16.45;;;;;;;9.58;75.19;98581.94;4978669;28;20066;-86
2020/12/12 22:39:37;;;;;;;189.65;17.63;;;;;;;9.59;75.05;98595.91;4977809;28;20047;-86
2020/12/12 22:42:03;;;;;;;100.20;16.00;;;;;;;9.60;75.00;98594.94;4979401;28;20421;-86
2020/12/12 22:44:30;;;;;;;121.07;18.05;;;;;;;9.59;75.20;98593.28;4977669;28;20070;-88
2020/12/12 22:46:57;;;;;;;141.98;18.30;;;;;;;9.61;75.29;98596.63;4976772;28;20519;-88
2020/12/12 22:49:25;;;;;;;181.15;19.52;;;;;;;9.59;75.30;98598.53;4976915;28;20073;-88
2020/12/12 22:51:58;;;;;;;256.80;21.35;;;;;;;9.57;74.96;98603.06;4978510;28;20152;-87
2020/12/12 22:54:24;;;;;;;122.00;17.40;;;;;;;9.59;75.16;98606.41;4978131;28;20456;-87
2020/12/12 22:56:57;;;;;;;259.73;23.38;;;;;;;9.57;75.09;98610.94;4976334;28;20576;-87
2020/12/12 22:59:28;;;;;;;201.70;19.75;;;;;;;9.56;74.99;98606.63;4977579;28;20057;-86
2020/12/12 23:01:56;;;;;;;138.98;17.70;;;;;;;9.57;75.29;98610.94;4979602;28;20050;-87
2020/12/12 23:04:25;;;;;;;131.80;17.73;;;;;;;9.56;75.32;98612.72;4977255;28;20077;-88
2020/12/12 23:06:51;;;;;;;115.68;17.67;;;;;;;9.56;75.14;98614.50;4975912;28;20059;-88
2020/12/12 23:09:18;;;;;;;141.10;18.45;;;;;;;9.56;75.37;98614.50;4978694;28;20490;-86
2020/12/12 23:11:46;;;;;;;68.15;14.93;;;;;;;9.56;75.29;98619.75;4979315;28;20498;-87
2020/12/12 23:14:14;;;;;;;90.95;13.70;;;;;;;9.56;75.48;98617.97;4977913;28;20062;-89
2020/12/12 23:16:43;;;;;;;75.55;14.80;;;;;;;9.56;75.54;98611.88;4976062;28;20055;-88
2020/12/12 23:19:10;;;;;;;61.45;13.55;;;;;;;9.58;75.40;98618.72;4977072;28;20047;-89
2020/12/12 23:21:40;;;;;;;50.38;14.15;;;;;;;9.56;75.38;98620.59;4977559;28;20055;-87
2020/12/12 23:24:06;;;;;;;70.65;14.55;;;;;;;9.57;75.29;98619.66;4976940;28;20050;-89
2020/12/12 23:26:36;;;;;;;67.40;13.20;;;;;;;9.58;75.55;98626.59;4978256;28;20133;-89
2020/12/12 23:29:03;;;;;;;64.82;13.48;;;;;;;9.59;75.30;98635.31;4977509;28;20490;-89
2020/12/12 23:31:31;;;;;;;39.83;12.18;;;;;;;9.59;75.20;98627.41;4978854;28;20051;-89
2020/12/12 23:33:59;;;;;;;33.92;11.27;;;;;;;9.58;75.36;98623.13;4977052;28;20058;-89
2020/12/12 23:36:26;;;;;;;33.00;11.23;;;;;;;9.57;75.37;98631.97;4980492;28;20090;-87
2020/12/12 23:38:53;;;;;;;19.17;10.07;;;;;;;9.57;75.26;98642.47;4979778;28;20046;-88
2020/12/12 23:41:20;;;;;;;29.85;10.13;;;;;;;9.57;75.38;98638.03;4976616;28;20058;-89
2020/12/12 23:43:46;;;;;;;15.75;10.00;;;;;;;9.56;75.33;98631.09;4978533;28;20077;-87
2020/12/12 23:46:15;;;;;;;74.18;11.35;;;;;;;9.58;75.58;98633.63;4978983;28;20057;-87
2020/12/12 23:48:42;;;;;;;37.53;10.25;;;;;;;9.59;75.54;98638.78;4976131;28;20054;-88
2020/12/12 23:51:10;;;;;;;71.40;11.30;;;;;;;9.59;75.35;98640.56;4975379;28;20053;-88
2020/12/12 23:53:36;;;;;;;142.38;14.25;;;;;;;9.60;75.44;98639.59;4977292;28;20055;-88
2020/12/12 23:56:07;;;;;;;161.38;14.55;;;;;;;9.61;75.52;98643.94;4978072;28;20058;-87
2020/12/12 23:58:35;;;;;;;66.45;13.35;;;;;;;9.62;75.52;98642.97;4977373;28;20059;-90
